Time;durP1;ratioP1;P1;durP2;ratioP2;P2;SDS_P1;SDS_P2;PMS_P1;PMS_P2;Temp;Humidity;BMP_temperature;BMP_pressure;BME280_temperature;BME280_humidity;BME280_pressure;Samples;Min_cycle;Max_cycle;Signal;HPM_P1;HPM_P2
2024/01/01 00:02:04;;;;;;;4.35;2.70;;;;;;;1.03;100.00;100184.31;5052303;28;20021;-68
2024/01/01 00:04:30;;;;;;;3.83;2.17;;;;;;;0.97;100.00;100177.81;5052176;28;20068;-69
2024/01/01 00:06:55;;;;;;;4.60;3.20;;;;;;;1.05;100.00;100179.69;5052548;28;20403;-68
2024/01/01 00:09:21;;;;;;;5.63;3.30;;;;;;;0.93;100.00;100165.88;5074158;28;20036;-71
2024/01/01 00:11:46;;;;;;;3.75;2.10;;;;;;;1.05;100.00;100171.72;5022915;28;20047;-69
2024/01/01 00:14:12;;;;;;;2.75;1.70;;;;;;;0.98;100.00;100174.16;5056292;28;20028;-68
2024/01/01 00:16:37;;;;;;;3.80;2.53;;;;;;;1.04;100.00;100164.78;5073907;28;20031;-68
2024/01/01 00:19:03;;;;;;;3.63;2.33;;;;;;;1.08;100.00;100171.44;5039090;28;20115;-68
2024/01/01 00:21:28;;;;;;;2.35;1.58;;;;;;;1.03;100.00;100171.06;5055807;28;20059;-68
2024/01/01 00:23:55;;;;;;;2.03;1.10;;;;;;;1.04;100.00;100173.56;5073760;28;20032;-68
2024/01/01 00:26:21;;;;;;;1.95;1.20;;;;;;;0.99;100.00;100164.41;5073594;28;20033;-67
2024/01/01 00:28:46;;;;;;;1.40;1.00;;;;;;;1.04;100.00;100164.78;5055939;28;20127;-68
2024/01/01 00:31:11;;;;;;;1.33;0.80;;;;;;;1.04;100.00;100167.44;5055648;28;20036;-70
2024/01/01 00:33:36;;;;;;;1.48;1.10;;;;;;;1.02;100.00;100169.38;5055135;28;20120;-68
2024/01/01 00:36:02;;;;;;;2.05;0.90;;;;;;;1.03;100.00;100169.25;5055697;28;20063;-67
2024/01/01 00:38:27;;;;;;;1.95;0.98;;;;;;;1.06;100.00;100165.44;5073575;28;20853;-67
2024/01/01 00:40:53;;;;;;;1.52;0.82;;;;;;;0.85;100.00;100139.28;5039024;28;20398;-68
2024/01/01 00:43:18;;;;;;;1.50;0.90;;;;;;;1.00;100.00;100168.72;5055395;28;20125;-68
2024/01/01 00:45:43;;;;;;;1.40;0.80;;;;;;;1.04;100.00;100170.09;5055783;28;20032;-69
2024/01/01 00:48:10;;;;;;;2.47;1.20;;;;;;;0.86;100.00;100139.16;5073483;28;20041;-68
2024/01/01 00:50:35;;;;;;;1.92;1.30;;;;;;;0.97;100.00;100163.75;5055276;28;20029;-68
2024/01/01 00:53:01;;;;;;;1.75;0.82;;;;;;;1.06;100.00;100154.84;5073490;28;20028;-68
2024/01/01 00:55:26;;;;;;;1.10;0.70;;;;;;;0.95;100.00;100150.63;5039009;28;20032;-68
2024/01/01 00:57:51;;;;;;;0.70;0.60;;;;;;;0.98;100.00;100155.63;5073095;28;20031;-68
2024/01/01 01:00:17;;;;;;;1.10;0.75;;;;;;;0.96;100.00;100162.91;5073116;28;20024;-72
2024/01/01 01:02:42;;;;;;;1.02;0.55;;;;;;;0.93;100.00;100156.09;5055090;28;20443;-68
2024/01/01 01:05:08;;;;;;;1.30;0.60;;;;;;;0.98;100.00;100154.78;5054983;28;20054;-68
2024/01/01 01:07:33;;;;;;;0.90;0.70;;;;;;;1.04;100.00;100151.53;5072905;28;20093;-69
2024/01/01 01:09:59;;;;;;;0.50;0.45;;;;;;;1.06;100.00;100138.94;5072740;28;20021;-70
2024/01/01 01:12:24;;;;;;;1.50;0.52;;;;;;;0.99;100.00;100161.75;5054657;28;20033;-69
2024/01/01 01:14:50;;;;;;;0.70;0.50;;;;;;;0.95;100.00;100153.28;5054599;28;20098;-69
2024/01/01 01:17:15;;;;;;;0.98;0.65;;;;;;;0.99;100.00;100153.81;5072591;28;20495;-69
2024/01/01 01:19:40;;;;;;;1.45;0.80;;;;;;;0.90;100.00;100135.22;5054585;28;20035;-68
2024/01/01 01:22:06;;;;;;;0.68;0.60;;;;;;;0.92;100.00;100148.28;5054555;28;20028;-68
2024/01/01 01:24:31;;;;;;;1.67;0.60;;;;;;;0.95;100.00;100155.91;5072422;28;20119;-73
2024/01/01 01:26:57;;;;;;;0.70;0.50;;;;;;;0.90;100.00;100151.09;5054537;28;20506;-68
2024/01/01 01:29:24;;;;;;;1.13;0.63;;;;;;;0.88;100.00;100144.28;5054888;28;20031;-70
2024/01/01 01:31:50;;;;;;;0.98;0.40;;;;;;;0.90;100.00;100145.81;5054893;28;20111;-68
2024/01/01 01:34:15;;;;;;;1.67;0.60;;;;;;;0.78;100.00;100143.53;5072542;28;20507;-69
2024/01/01 01:36:41;;;;;;;0.63;0.43;;;;;;;0.93;100.00;100139.38;5072480;28;20070;-68
2024/01/01 01:39:06;;;;;;;0.95;0.40;;;;;;;0.85;100.00;100139.28;5054592;28;20033;-68
2024/01/01 01:41:32;;;;;;;1.17;0.40;;;;;;;0.83;100.00;100144.75;5054523;28;20045;-69
2024/01/01 01:43:57;;;;;;;0.20;0.15;;;;;;;0.76;100.00;100135.72;5072604;28;20032;-69
2024/01/01 01:46:24;;;;;;;0.40;0.32;;;;;;;0.75;100.00;100152.59;5072644;28;20498;-69
2024/01/01 01:48:50;;;;;;;0.60;0.43;;;;;;;0.71;100.00;100127.41;5054352;28;20430;-68
2024/01/01 01:51:16;;;;;;;0.30;0.28;;;;;;;0.63;100.00;100138.78;5070847;28;20024;-76
2024/01/01 01:53:41;;;;;;;2.97;0.40;;;;;;;0.74;100.00;100145.66;5072314;28;20029;-69
2024/01/01 01:56:07;;;;;;;1.35;0.30;;;;;;;0.75;100.00;100149.13;5072610;28;20028;-68
2024/01/01 01:58:34;;;;;;;0.20;0.17;;;;;;;0.70;100.00;100152.25;5053873;28;20090;-69
2024/01/01 02:01:00;;;;;;;0.22;0.20;;;;;;;0.51;100.00;100123.28;5054138;28;20028;-68
2024/01/01 02:03:26;;;;;;;0.28;0.20;;;;;;;0.68;100.00;100138.31;5071648;28;20486;-68
2024/01/01 02:05:54;;;;;;;0.45;0.30;;;;;;;0.72;100.00;100144.13;5054006;28;20077;-68
2024/01/01 02:08:21;;;;;;;1.83;0.30;;;;;;;0.56;100.00;100128.94;5070351;28;20032;-68
2024/01/01 02:10:47;;;;;;;0.50;0.25;;;;;;;0.70;100.00;100142.47;5071623;28;20056;-68
2024/01/01 02:13:23;;;;;;;0.90;0.40;;;;;;;0.72;100.00;100144.97;5071715;28;20068;-68
2024/01/01 02:15:49;;;;;;;0.68;0.25;;;;;;;0.74;100.00;100142.19;5053421;28;20574;-68
2024/01/01 02:18:14;;;;;;;0.47;0.20;;;;;;;0.65;100.00;100135.97;5071593;28;20115;-68
2024/01/01 02:20:39;;;;;;;0.28;0.22;;;;;;;0.78;100.00;100146.19;5053456;28;20341;-68
2024/01/01 02:23:05;;;;;;;0.30;0.20;;;;;;;0.75;100.00;100134.06;5069937;28;20040;-67
2024/01/01 02:25:30;;;;;;;1.38;0.40;;;;;;;0.81;100.00;100141.41;5053622;28;20402;-69
2024/01/01 02:27:55;;;;;;;0.43;0.40;;;;;;;0.78;100.00;100135.59;5037289;28;20032;-67
2024/01/01 02:30:21;;;;;;;0.30;0.20;;;;;;;0.74;100.00;100144.81;5070836;28;20031;-68
2024/01/01 02:32:46;;;;;;;0.28;0.20;;;;;;;0.76;100.00;100138.38;5071619;28;20039;-68
2024/01/01 02:35:12;;;;;;;0.77;0.30;;;;;;;0.73;100.00;100133.41;5071381;28;20031;-67
2024/01/01 02:37:37;;;;;;;0.20;0.15;;;;;;;0.76;100.00;100133.06;5071186;28;20024;-69
2024/01/01 02:40:03;;;;;;;0.77;0.30;;;;;;;0.78;100.00;100156.78;5071219;28;20032;-67
2024/01/01 02:42:29;;;;;;;0.40;0.30;;;;;;;0.76;100.00;100142.84;5071271;28;20103;-69
2024/01/01 02:44:55;;;;;;;0.50;0.30;;;;;;;0.76;100.00;100126.94;5071357;28;20398;-68
2024/01/01 02:47:20;;;;;;;0.47;0.20;;;;;;;0.62;100.00;100115.09;5036608;28;20132;-68
2024/01/01 02:49:46;;;;;;;0.50;0.30;;;;;;;0.84;100.00;100141.09;5053268;28;20527;-68
2024/01/01 02:52:11;;;;;;;0.70;0.30;;;;;;;0.84;100.00;100138.47;5071147;28;20036;-68
2024/01/01 02:54:37;;;;;;;0.57;0.30;;;;;;;0.73;100.00;100103.44;5070699;28;20031;-68
2024/01/01 02:57:02;;;;;;;0.10;0.03;;;;;;;0.85;100.00;100134.81;5071359;28;20031;-68
2024/01/01 02:59:29;;;;;;;0.28;0.20;;;;;;;0.89;100.00;100130.91;5070133;28;20028;-68
2024/01/01 03:01:54;;;;;;;0.30;0.10;;;;;;;0.85;100.00;100126.03;5070924;28;20036;-67
2024/01/01 03:04:19;;;;;;;0.22;0.20;;;;;;;0.88;100.00;100142.47;5070646;28;20040;-68
2024/01/01 03:06:45;;;;;;;0.30;0.17;;;;;;;0.89;100.00;100133.56;5070425;28;20028;-68
2024/01/01 03:09:10;;;;;;;0.28;0.20;;;;;;;0.97;100.00;100131.94;5070836;28;20044;-67
2024/01/01 03:11:35;;;;;;;0.65;0.30;;;;;;;0.93;100.00;100134.91;5070480;28;20111;-68
2024/01/01 03:14:01;;;;;;;0.38;0.20;;;;;;;0.86;100.00;100136.50;5052779;28;20059;-68
2024/01/01 03:16:26;;;;;;;0.20;0.20;;;;;;;0.92;100.00;100121.78;5070346;28;20027;-67
2024/01/01 03:18:51;;;;;;;0.60;0.20;;;;;;;0.89;100.00;100128.25;5052692;28;20123;-67
2024/01/01 03:21:17;;;;;;;0.77;0.20;;;;;;;0.94;100.00;100133.91;5052592;28;20048;-68
2024/01/01 03:23:42;;;;;;;0.22;0.10;;;;;;;0.96;100.00;100128.47;5052810;28;20113;-68
2024/01/01 03:26:08;;;;;;;0.40;0.20;;;;;;;0.94;100.00;100136.56;5036509;28;20032;-68
2024/01/01 03:28:34;;;;;;;0.10;0.10;;;;;;;0.98;100.00;100130.94;5052866;28;20093;-68
2024/01/01 03:31:00;;;;;;;0.32;0.20;;;;;;;0.73;100.00;100085.75;5052748;28;20531;-68
2024/01/01 03:33:26;;;;;;;1.25;0.10;;;;;;;0.82;100.00;100097.22;5070776;28;20442;-68
2024/01/01 03:35:52;;;;;;;0.35;0.10;;;;;;;0.99;100.00;100132.59;5070763;28;20024;-68
2024/01/01 03:38:18;;;;;;;0.43;0.20;;;;;;;0.93;100.00;100124.31;5070298;28;20479;-68
2024/01/01 03:40:43;;;;;;;0.17;0.10;;;;;;;0.90;100.00;100129.09;5052841;28;20032;-67
2024/01/01 03:43:09;;;;;;;0.10;0.10;;;;;;;0.90;100.00;100131.72;5072894;28;20041;-68
2024/01/01 03:45:34;;;;;;;0.38;0.10;;;;;;;0.92;100.00;100137.69;5056860;28;20060;-68
2024/01/01 03:47:59;;;;;;;0.15;0.10;;;;;;;0.93;100.00;100140.19;5056992;28;20037;-68
2024/01/01 03:50:25;;;;;;;0.20;0.20;;;;;;;0.87;100.00;100130.22;5074208;28;20365;-69
2024/01/01 03:52:50;;;;;;;0.28;0.13;;;;;;;0.74;100.00;100099.81;5060425;28;20060;-67
2024/01/01 03:55:16;;;;;;;0.25;0.17;;;;;;;0.90;100.00;100124.59;5039947;28;20028;-67
2024/01/01 03:57:41;;;;;;;0.40;0.10;;;;;;;0.93;100.00;100132.25;5074136;28;20119;-68
2024/01/01 04:00:08;;;;;;;0.30;0.10;;;;;;;0.74;100.00;100091.88;5056412;28;20082;-67
2024/01/01 04:02:34;;;;;;;0.75;0.17;;;;;;;0.98;100.00;100123.84;5056082;28;20024;-67
2024/01/01 04:04:59;;;;;;;0.20;0.20;;;;;;;0.75;100.00;100089.06;5073948;28;20046;-68
2024/01/01 04:07:25;;;;;;;0.40;0.20;;;;;;;0.85;100.00;100129.53;5055972;28;20040;-67
2024/01/01 04:09:50;;;;;;;0.13;0.10;;;;;;;0.54;100.00;100076.16;5056023;28;20043;-68
2024/01/01 04:12:16;;;;;;;0.15;0.10;;;;;;;0.36;100.00;100040.91;5073878;28;20097;-67
2024/01/01 04:14:41;;;;;;;0.82;0.20;;;;;;;0.87;100.00;100127.56;5056022;28;20070;-67
2024/01/01 04:17:07;;;;;;;0.00;0.00;;;;;;;0.85;100.00;100129.53;5055692;28;20502;-67
2024/01/01 04:19:32;;;;;;;0.22;0.10;;;;;;;0.82;100.00;100132.47;5073591;28;20113;-67
2024/01/01 04:21:57;;;;;;;0.10;0.10;;;;;;;0.85;100.00;100124.22;5055781;28;20036;-66
2024/01/01 04:24:23;;;;;;;0.15;0.10;;;;;;;0.92;100.00;100122.63;5055980;28;20043;-67
2024/01/01 04:26:48;;;;;;;0.10;0.10;;;;;;;0.90;100.00;100124.59;5056197;28;20029;-66
2024/01/01 04:29:16;;;;;;;0.00;0.00;;;;;;;0.82;100.00;100103.34;5073971;28;20460;-67
2024/01/01 04:31:41;;;;;;;0.55;0.10;;;;;;;0.85;100.00;100121.56;5056455;28;20059;-67
2024/01/01 04:34:07;;;;;;;0.10;0.10;;;;;;;0.86;100.00;100111.81;5072533;28;20504;-67
2024/01/01 04:36:32;;;;;;;0.43;0.13;;;;;;;0.64;100.00;100099.91;5055896;28;20036;-67
2024/01/01 04:38:59;;;;;;;0.20;0.10;;;;;;;0.70;100.00;100115.19;5055762;28;20032;-67
2024/01/01 04:41:24;;;;;;;0.28;0.10;;;;;;;0.78;100.00;100117.88;5039373;28;20139;-66
2024/01/01 04:43:50;;;;;;;0.40;0.10;;;;;;;0.73;100.00;100121.97;5073572;28;20119;-66
2024/01/01 04:46:15;;;;;;;0.15;0.10;;;;;;;0.81;100.00;100125.53;5039369;28;20062;-67
2024/01/01 04:48:40;;;;;;;0.08;0.08;;;;;;;0.75;100.00;100118.19;5038928;28;20074;-67
2024/01/01 04:51:06;;;;;;;0.30;0.10;;;;;;;0.76;100.00;100121.66;5038669;28;20060;-67
2024/01/01 04:53:31;;;;;;;0.10;0.10;;;;;;;0.72;100.00;100122.94;5054605;28;20064;-68
2024/01/01 04:55:57;;;;;;;0.30;0.13;;;;;;;0.72;100.00;100121.13;5072053;28;20029;-67
2024/01/01 04:58:22;;;;;;;0.10;0.10;;;;;;;0.20;100.00;100039.78;5054916;28;20033;-67
2024/01/01 05:00:47;;;;;;;0.52;0.10;;;;;;;0.67;100.00;100123.41;5072771;28;20024;-67
2024/01/01 05:03:13;;;;;;;0.28;0.10;;;;;;;0.72;100.00;100131.72;5055103;28;20491;-67
2024/01/01 05:05:38;;;;;;;1.85;0.13;;;;;;;0.71;100.00;100132.72;5054865;28;20040;-67
2024/01/01 05:08:04;;;;;;;0.00;0.00;;;;;;;0.54;100.00;100133.56;5073143;28;20545;-68
2024/01/01 05:10:29;;;;;;;0.10;0.00;;;;;;;0.50;100.00;100126.88;5071435;28;20583;-67
2024/01/01 05:12:55;;;;;;;0.40;0.10;;;;;;;0.44;100.00;100129.16;5055080;28;20448;-67
2024/01/01 05:15:20;;;;;;;0.20;0.10;;;;;;;0.46;100.00;100127.22;5072792;28;20422;-67
2024/01/01 05:17:45;;;;;;;0.10;0.10;;;;;;;0.49;100.00;100138.44;5072621;28;20362;-67
2024/01/01 05:20:11;;;;;;;0.10;0.10;;;;;;;0.44;100.00;100125.69;5054214;28;20111;-67
2024/01/01 05:22:37;;;;;;;0.90;0.10;;;;;;;0.41;100.00;100128.63;5054595;28;20059;-67
2024/01/01 05:25:04;;;;;;;0.00;0.00;;;;;;;0.26;100.00;100107.13;5055006;28;20102;-67
2024/01/01 05:27:29;;;;;;;0.00;0.00;;;;;;;0.17;100.00;100086.88;5054331;28;20052;-66
2024/01/01 05:29:54;;;;;;;0.10;0.00;;;;;;;0.35;100.00;100114.16;5072746;28;20580;-66
2024/01/01 05:32:20;;;;;;;0.10;0.10;;;;;;;0.46;100.00;100132.50;5054617;28;20037;-67
2024/01/01 05:34:46;;;;;;;0.45;0.10;;;;;;;0.41;100.00;100131.28;5054640;28;20020;-67
2024/01/01 05:37:12;;;;;;;0.08;0.00;;;;;;;0.38;100.00;100139.50;5054601;28;20028;-66
2024/01/01 05:39:37;;;;;;;0.00;0.00;;;;;;;0.38;100.00;100140.34;5054584;28;20267;-67
2024/01/01 05:42:03;;;;;;;0.57;0.10;;;;;;;0.34;100.00;100144.28;5072345;28;20041;-68
2024/01/01 05:44:28;;;;;;;0.00;0.00;;;;;;;0.30;100.00;100134.97;5072172;28;20057;-67
2024/01/01 05:46:53;;;;;;;0.35;0.10;;;;;;;0.34;100.00;100138.16;5054568;28;20036;-67
2024/01/01 05:49:19;;;;;;;0.00;0.00;;;;;;;0.32;100.00;100125.06;5054405;28;20256;-67
2024/01/01 05:51:45;;;;;;;0.00;0.00;;;;;;;0.34;100.00;100133.69;5072073;28;20029;-66
2024/01/01 05:54:10;;;;;;;0.03;0.00;;;;;;;0.36;100.00;100142.28;5071872;28;20161;-66
2024/01/01 05:56:36;;;;;;;0.32;0.10;;;;;;;0.33;100.00;100124.09;5071822;28;20382;-66
2024/01/01 05:59:02;;;;;;;0.10;0.00;;;;;;;0.44;100.00;100133.63;5071450;28;20032;-67
2024/01/01 06:01:27;;;;;;;0.00;0.00;;;;;;;0.49;100.00;100128.69;5071604;28;20498;-66
2024/01/01 06:03:52;;;;;;;0.10;0.10;;;;;;;0.50;100.00;100130.38;5054068;28;20067;-67
2024/01/01 06:06:17;;;;;;;0.10;0.00;;;;;;;0.57;100.00;100143.84;5053136;28;20032;-66
2024/01/01 06:08:43;;;;;;;0.00;0.00;;;;;;;0.56;100.00;100142.16;5053631;28;20046;-66
2024/01/01 06:11:09;;;;;;;0.00;0.00;;;;;;;0.54;100.00;100141.50;5053663;28;20036;-66
2024/01/01 06:13:34;;;;;;;0.10;0.10;;;;;;;0.55;100.00;100124.63;5071636;28;20024;-67
2024/01/01 06:16:00;;;;;;;0.25;0.10;;;;;;;0.62;100.00;100131.81;5071358;28;20025;-66
2024/01/01 06:18:26;;;;;;;0.10;0.03;;;;;;;0.65;100.00;100141.25;5071825;28;20453;-66
2024/01/01 06:20:51;;;;;;;0.03;0.00;;;;;;;0.72;100.00;100133.53;5071889;28;20099;-67
2024/01/01 06:23:17;;;;;;;0.10;0.08;;;;;;;0.75;100.00;100147.31;5071768;28;20100;-66
2024/01/01 06:25:42;;;;;;;0.73;0.08;;;;;;;0.68;100.00;100125.06;5071557;28;20028;-67
2024/01/01 06:28:07;;;;;;;0.00;0.00;;;;;;;0.79;100.00;100143.38;5071616;28;20064;-66
2024/01/01 06:30:34;;;;;;;0.00;0.00;;;;;;;0.78;100.00;100140.88;5053548;28;20036;-66
2024/01/01 06:33:01;;;;;;;0.10;0.10;;;;;;;0.83;100.00;100160.63;5053832;28;20497;-66
2024/01/01 06:35:30;;;;;;;0.00;0.00;;;;;;;0.85;100.00;100158.66;5070157;28;20044;-67
2024/01/01 06:37:56;;;;;;;0.10;0.00;;;;;;;0.68;100.00;100122.44;5071629;28;20021;-67
2024/01/01 06:40:21;;;;;;;0.00;0.00;;;;;;;0.89;100.00;100157.38;5071777;28;20044;-68
2024/01/01 06:42:46;;;;;;;0.00;0.00;;;;;;;0.88;100.00;100168.13;5071201;28;20051;-67
2024/01/01 06:45:14;;;;;;;0.00;0.00;;;;;;;0.93;100.00;100163.22;5053344;28;20032;-67
2024/01/01 06:47:39;;;;;;;0.10;0.00;;;;;;;0.91;100.00;100160.69;5053122;28;20026;-67
2024/01/01 06:50:05;;;;;;;0.10;0.00;;;;;;;0.93;100.00;100160.56;5053181;28;20512;-67
2024/01/01 06:52:30;;;;;;;0.63;0.00;;;;;;;0.98;100.00;100170.69;5070826;28;20040;-67
2024/01/01 06:54:56;;;;;;;0.00;0.00;;;;;;;1.00;100.00;100160.78;5071021;28;20028;-66
2024/01/01 06:57:21;;;;;;;0.10;0.00;;;;;;;1.05;100.00;100169.09;5019765;28;20411;-67
2024/01/01 06:59:47;;;;;;;0.10;0.00;;;;;;;1.06;100.00;100173.38;5053064;28;20036;-67
2024/01/01 07:02:12;;;;;;;0.00;0.00;;;;;;;1.12;100.00;100164.84;5052696;28;20391;-67
2024/01/01 07:04:37;;;;;;;0.00;0.00;;;;;;;1.15;100.00;100169.81;5070567;28;20077;-66
2024/01/01 07:07:03;;;;;;;0.00;0.00;;;;;;;1.00;100.00;100155.47;5070536;28;20032;-66
2024/01/01 07:09:28;;;;;;;0.05;0.00;;;;;;;1.17;100.00;100170.53;5052732;28;20059;-66
2024/01/01 07:11:56;;;;;;;0.00;0.00;;;;;;;1.21;100.00;100181.63;5071142;28;20033;-66
2024/01/01 07:14:21;;;;;;;0.10;0.00;;;;;;;1.26;100.00;100184.66;5071262;28;20400;-67
2024/01/01 07:16:46;;;;;;;0.10;0.10;;;;;;;1.29;100.00;100187.84;5069778;28;20028;-66
2024/01/01 07:19:12;;;;;;;0.10;0.00;;;;;;;1.20;100.00;100172.88;5053395;28;20058;-67
2024/01/01 07:21:37;;;;;;;0.00;0.00;;;;;;;1.27;100.00;100184.50;5071104;28;20046;-67
2024/01/01 07:24:04;;;;;;;0.10;0.00;;;;;;;1.12;100.00;100152.41;5071013;28;20544;-66
2024/01/01 07:26:30;;;;;;;0.03;0.00;;;;;;;1.22;100.00;100181.47;5070473;28;20028;-67
2024/01/01 07:28:55;;;;;;;0.00;0.00;;;;;;;1.28;100.00;100190.63;5052957;28;20123;-67
2024/01/01 07:31:21;;;;;;;0.00;0.00;;;;;;;1.26;100.00;100166.09;5070769;28;20047;-67
2024/01/01 07:33:47;;;;;;;0.00;0.00;;;;;;;1.28;100.00;100174.72;5053006;28;20500;-66
2024/01/01 07:36:12;;;;;;;0.22;0.10;;;;;;;1.09;100.00;100162.50;5052619;28;20029;-66
2024/01/01 07:38:41;;;;;;;0.00;0.00;;;;;;;1.29;100.00;100195.81;5070273;28;20040;-66
2024/01/01 07:41:07;;;;;;;0.08;0.00;;;;;;;0.79;100.00;100124.00;5051922;28;20040;-67
2024/01/01 07:43:34;;;;;;;0.00;0.00;;;;;;;1.35;100.00;100194.31;5052095;28;20038;-67
2024/01/01 07:45:59;;;;;;;0.10;0.05;;;;;;;1.30;100.00;100183.38;5070398;28;20032;-66
2024/01/01 07:48:24;;;;;;;0.00;0.00;;;;;;;1.36;100.00;100172.97;5069240;28;20034;-67
2024/01/01 07:50:50;;;;;;;0.10;0.00;;;;;;;1.36;100.00;100166.84;5070426;28;20032;-67
2024/01/01 07:53:15;;;;;;;0.05;0.00;;;;;;;1.23;100.00;100150.53;5070201;28;20386;-67
2024/01/01 07:55:41;;;;;;;0.00;0.00;;;;;;;1.33;100.00;100185.72;5070244;28;20043;-66
2024/01/01 07:58:06;;;;;;;0.17;0.00;;;;;;;1.35;100.00;100179.25;5070212;28;20035;-67
2024/01/01 08:00:32;;;;;;;0.10;0.00;;;;;;;1.30;100.00;100163.00;5070208;28;20621;-66
2024/01/01 08:02:58;;;;;;;0.00;0.00;;;;;;;1.43;100.00;100193.56;5052208;28;20031;-67
2024/01/01 08:05:23;;;;;;;0.03;0.00;;;;;;;1.46;100.00;100178.19;5070308;28;20399;-67
2024/01/01 08:07:49;;;;;;;0.60;0.00;;;;;;;1.51;100.00;100193.63;5052452;28;20028;-67
2024/01/01 08:10:15;;;;;;;0.20;0.00;;;;;;;1.32;100.00;100150.41;5070230;28;20059;-68
2024/01/01 08:12:40;;;;;;;0.00;0.00;;;;;;;1.54;100.00;100206.56;5070357;28;20097;-66
2024/01/01 08:15:06;;;;;;;0.10;0.03;;;;;;;1.57;100.00;100200.97;5069182;28;20491;-66
2024/01/01 08:17:31;;;;;;;0.00;0.00;;;;;;;1.56;100.00;100199.31;5052128;28;20028;-68
2024/01/01 08:19:56;;;;;;;0.00;0.00;;;;;;;1.64;100.00;100202.81;5070439;28;20161;-67
2024/01/01 08:22:22;;;;;;;0.00;0.00;;;;;;;1.61;100.00;100220.88;5070491;28;20016;-67
2024/01/01 08:24:47;;;;;;;0.10;0.10;;;;;;;1.58;100.00;100208.75;5052684;28;20024;-67
2024/01/01 08:27:13;;;;;;;0.03;0.00;;;;;;;1.58;100.00;100197.31;5052483;28;20582;-67
2024/01/01 08:29:38;;;;;;;0.00;0.00;;;;;;;1.61;100.00;100215.56;5038511;28;20399;-67
2024/01/01 08:32:04;;;;;;;0.00;0.00;;;;;;;1.63;100.00;100216.25;5074016;28;20036;-67
2024/01/01 08:34:31;;;;;;;0.20;0.05;;;;;;;1.70;100.00;100222.59;5055842;28;20029;-67
2024/01/01 08:36:58;;;;;;;0.57;0.03;;;;;;;1.78;100.00;100229.75;5055781;28;20033;-67
2024/01/01 08:39:24;;;;;;;0.00;0.00;;;;;;;1.78;100.00;100230.56;5073381;28;20025;-67
2024/01/01 08:41:49;;;;;;;0.30;0.00;;;;;;;1.75;100.00;100222.09;5055377;28;20453;-67
2024/01/01 08:44:15;;;;;;;0.32;0.03;;;;;;;1.48;100.00;100181.50;5073281;28;20055;-67
2024/01/01 08:46:41;;;;;;;0.30;0.10;;;;;;;1.79;100.00;100232.28;5073336;28;20037;-68
2024/01/01 08:49:07;;;;;;;0.10;0.00;;;;;;;1.71;100.00;100176.50;5073407;28;20047;-67
2024/01/01 08:51:33;;;;;;;0.82;0.10;;;;;;;1.77;100.00;100222.78;5073186;28;20084;-67
2024/01/01 08:53:59;;;;;;;0.00;0.00;;;;;;;1.80;100.00;100228.63;5072998;28;20111;-67
2024/01/01 08:56:24;;;;;;;0.10;0.00;;;;;;;1.64;100.00;100197.50;5073202;28;20123;-67
2024/01/01 08:58:49;;;;;;;0.10;0.00;;;;;;;1.79;100.00;100232.28;5055345;28;20242;-66
2024/01/01 09:01:15;;;;;;;0.20;0.10;;;;;;;1.82;100.00;100233.75;5055392;28;20515;-67
2024/01/01 09:03:40;;;;;;;0.57;0.10;;;;;;;1.64;100.00;100209.94;5073571;28;20068;-67
2024/01/01 09:06:05;;;;;;;0.20;0.10;;;;;;;1.75;100.00;100216.81;5055382;28;20036;-67
2024/01/01 09:08:31;;;;;;;0.40;0.10;;;;;;;1.75;100.00;100228.25;5055010;28;20082;-67
2024/01/01 09:10:57;;;;;;;0.13;0.10;;;;;;;1.84;100.00;100235.25;5055517;28;20028;-67
2024/01/01 09:13:22;;;;;;;0.10;0.05;;;;;;;1.84;100.00;100232.63;5073113;28;20036;-68
2024/01/01 09:15:48;;;;;;;0.03;0.03;;;;;;;1.80;100.00;100249.84;5073665;28;20032;-68
2024/01/01 09:18:13;;;;;;;0.13;0.10;;;;;;;1.81;100.00;100248.00;5072182;28;20098;-67
2024/01/01 09:20:41;;;;;;;0.30;0.17;;;;;;;1.72;100.00;100233.03;5073243;28;20062;-66
2024/01/01 09:23:08;;;;;;;0.22;0.20;;;;;;;1.88;100.00;100252.53;5038868;28;20032;-67
2024/01/01 09:25:40;;;;;;;4.97;3.85;;;;;;;1.79;100.00;100250.00;5073246;28;20074;-67
2024/01/01 09:28:06;;;;;;;0.35;0.30;;;;;;;1.87;100.00;100256.19;5054852;28;20399;-67
2024/01/01 09:30:31;;;;;;;0.10;0.10;;;;;;;1.65;100.00;100231.00;5072546;28;20024;-68
2024/01/01 09:32:56;;;;;;;0.00;0.00;;;;;;;1.87;100.00;100263.31;5054497;28;20106;-67
2024/01/01 09:35:22;;;;;;;0.20;0.10;;;;;;;1.56;100.00;100213.38;5054701;28;20028;-67
2024/01/01 09:37:52;;;;;;;0.10;0.10;;;;;;;1.91;100.00;100253.22;5072320;28;20024;-68
2024/01/01 09:40:18;;;;;;;0.20;0.20;;;;;;;1.92;100.00;100246.91;5054123;28;20052;-68
2024/01/01 09:42:50;;;;;;;0.20;0.10;;;;;;;1.90;100.00;100268.31;5072045;28;20056;-68
2024/01/01 09:45:16;;;;;;;0.10;0.10;;;;;;;1.96;100.00;100264.22;5072450;28;20046;-67
2024/01/01 09:47:42;;;;;;;0.15;0.10;;;;;;;1.95;100.00;100260.69;5072560;28;20037;-67
2024/01/01 09:50:08;;;;;;;0.00;0.00;;;;;;;1.87;100.00;100253.53;5054474;28;20454;-67
2024/01/01 09:52:34;;;;;;;0.40;0.10;;;;;;;1.90;100.00;100265.66;5053797;28;20052;-67
2024/01/01 09:55:00;;;;;;;0.15;0.10;;;;;;;1.91;100.00;100255.88;5072198;28;20111;-67
2024/01/01 09:57:26;;;;;;;0.00;0.00;;;;;;;1.93;100.00;100252.06;5054365;28;20082;-67
2024/01/01 09:59:51;;;;;;;0.73;0.10;;;;;;;1.77;100.00;100238.72;5054844;28;20060;-67
2024/01/01 10:02:23;;;;;;;0.10;0.10;;;;;;;1.90;100.00;100263.00;5054506;28;20515;-67
2024/01/01 10:04:48;;;;;;;0.08;0.08;;;;;;;1.86;100.00;100265.13;5072125;28;20511;-67
2024/01/01 10:07:25;;;;;;;0.10;0.08;;;;;;;1.87;100.00;100276.56;5054338;28;20036;-67
2024/01/01 10:09:50;;;;;;;0.25;0.20;;;;;;;1.65;100.00;100235.47;5070984;28;20037;-68
2024/01/01 10:12:21;;;;;;;0.10;0.10;;;;;;;1.82;100.00;100273.53;5037694;28;20175;-67
2024/01/01 10:14:48;;;;;;;0.30;0.10;;;;;;;1.81;100.00;100277.19;5054394;28;20032;-68
2024/01/01 10:17:15;;;;;;;0.20;0.10;;;;;;;1.82;100.00;100268.22;5072133;28;20063;-68
2024/01/01 10:19:52;;;;;;;0.13;0.10;;;;;;;1.84;100.00;100264.44;5071860;28;20035;-67
2024/01/01 10:22:19;;;;;;;0.10;0.10;;;;;;;1.83;100.00;100249.53;5054076;28;20062;-67
2024/01/01 10:24:49;;;;;;;0.10;0.10;;;;;;;1.83;100.00;100243.41;5070814;28;20032;-67
2024/01/01 10:27:18;;;;;;;0.20;0.10;;;;;;;1.88;100.00;100264.97;5071678;28;20103;-67
2024/01/01 10:29:47;;;;;;;0.30;0.10;;;;;;;1.91;100.00;100269.97;5071622;28;20032;-67
2024/01/01 10:32:17;;;;;;;0.43;0.20;;;;;;;1.90;100.00;100259.53;5036880;28;20024;-67
2024/01/01 10:34:47;;;;;;;0.20;0.10;;;;;;;1.71;100.00;100216.28;5071251;28;20021;-67
2024/01/01 10:37:19;;;;;;;0.20;0.20;;;;;;;1.82;100.00;100263.78;5053456;28;20092;-68
2024/01/01 10:39:47;;;;;;;0.10;0.10;;;;;;;1.95;100.00;100257.22;5054173;28;20135;-67
2024/01/01 10:42:13;;;;;;;0.45;0.17;;;;;;;1.77;100.00;100247.50;5071069;28;20063;-67
2024/01/01 10:44:38;;;;;;;0.10;0.10;;;;;;;2.02;100.00;100258.25;5052823;28;20037;-68
2024/01/01 10:47:09;;;;;;;0.70;0.38;;;;;;;1.94;100.00;100266.16;5071242;28;20086;-67
2024/01/01 10:49:36;;;;;;;0.38;0.30;;;;;;;1.96;100.00;100258.91;5071454;28;20122;-67
2024/01/01 10:52:25;;;;;;;0.45;0.30;;;;;;;1.44;100.00;100190.75;5052697;28;20078;-67
2024/01/01 10:55:09;;;;;;;0.40;0.30;;;;;;;1.92;100.00;100270.78;5058376;28;20087;-66
2024/01/01 10:58:07;;;;;;;0.20;0.20;;;;;;;1.80;100.00;100259.63;5071085;28;20108;-67
2024/01/01 11:00:41;;;;;;;0.25;0.20;;;;;;;1.93;100.00;100275.13;5030102;28;20033;-67
2024/01/01 11:03:12;;;;;;;0.40;0.38;;;;;;;1.88;100.00;100254.34;5071419;28;20129;-67
2024/01/01 11:05:37;;;;;;;0.52;0.20;;;;;;;1.84;100.00;100267.09;5071325;28;20051;-67
2024/01/01 11:08:03;;;;;;;0.30;0.30;;;;;;;1.93;100.00;100248.59;5071664;28;20452;-69
2024/01/01 11:10:44;;;;;;;0.28;0.20;;;;;;;1.88;100.00;100251.69;5070236;28;20028;-68
2024/01/01 11:13:32;;;;;;;0.20;0.20;;;;;;;1.88;100.00;100268.44;5053695;28;20051;-68
2024/01/01 11:16:06;;;;;;;0.50;0.32;;;;;;;1.90;100.00;100264.81;5073098;28;20039;-68
2024/01/01 11:18:32;;;;;;;0.65;0.20;;;;;;;1.92;100.00;100268.13;5053239;28;20050;-67
2024/01/01 11:20:58;;;;;;;0.73;0.50;;;;;;;1.92;100.00;100269.00;5070063;28;20035;-68